createdAt,value
2022-10-16T00:01:16.419Z,1.70
2022-10-16T00:03:44.109Z,2.60
2022-10-16T00:06:11.606Z,2.28
2022-10-16T00:08:38.645Z,2.75
2022-10-16T00:11:10.058Z,2.10
2022-10-16T00:13:38.110Z,2.00
2022-10-16T00:16:05.093Z,1.83
2022-10-16T00:18:31.928Z,1.60
2022-10-16T00:21:09.275Z,1.33
2022-10-16T00:23:36.746Z,1.25
2022-10-16T00:26:06.225Z,1.95
2022-10-16T00:28:33.084Z,1.40
2022-10-16T00:30:59.822Z,1.73
2022-10-16T00:33:26.198Z,1.48
2022-10-16T00:35:52.618Z,1.30
2022-10-16T00:38:19.026Z,1.38
2022-10-16T00:40:45.473Z,1.25
2022-10-16T00:43:34.866Z,1.50
2022-10-16T00:46:03.207Z,1.40
2022-10-16T00:48:30.054Z,1.42
2022-10-16T00:50:57.740Z,1.23
2022-10-16T00:53:26.088Z,1.40
2022-10-16T00:55:52.992Z,1.90
2022-10-16T00:58:19.413Z,1.30
2022-10-16T01:00:45.844Z,1.17
2022-10-16T01:03:30.654Z,1.90
2022-10-16T01:06:09.257Z,1.05
2022-10-16T01:09:01.129Z,1.00
2022-10-16T01:11:42.657Z,1.60
2022-10-16T01:14:22.877Z,1.05
2022-10-16T01:17:14.930Z,1.70
2022-10-16T01:20:05.875Z,1.40
2022-10-16T01:22:42.137Z,1.15
2022-10-16T01:25:17.793Z,1.23
2022-10-16T01:27:46.759Z,1.40
2022-10-16T01:30:22.293Z,1.38
2022-10-16T01:33:04.529Z,1.35
2022-10-16T01:35:37.003Z,1.52
2022-10-16T01:38:22.189Z,1.50
2022-10-16T01:40:53.150Z,1.30
2022-10-16T01:43:28.293Z,1.42
2022-10-16T01:45:55.722Z,1.17
2022-10-16T01:48:24.755Z,1.30
2022-10-16T01:51:07.759Z,1.90
2022-10-16T01:53:34.576Z,1.52
2022-10-16T01:56:03.086Z,1.83
2022-10-16T01:58:35.450Z,2.00
2022-10-16T02:01:05.282Z,2.20
2022-10-16T02:03:34.283Z,1.40
2022-10-16T02:06:00.927Z,1.30
2022-10-16T02:08:30.530Z,1.60
2022-10-16T02:10:58.382Z,1.08
2022-10-16T02:13:32.337Z,1.35
2022-10-16T02:15:58.792Z,1.20
2022-10-16T02:18:30.026Z,1.15
2022-10-16T02:20:59.205Z,1.30
2022-10-16T02:23:36.840Z,1.63
2022-10-16T02:26:07.872Z,1.38
2022-10-16T02:28:45.131Z,1.95
2022-10-16T02:31:17.324Z,1.20
2022-10-16T02:33:46.742Z,1.15
2022-10-16T02:36:13.893Z,1.25
2022-10-16T02:38:41.216Z,1.40
2022-10-16T02:41:07.727Z,1.02
2022-10-16T02:43:34.828Z,1.13
2022-10-16T02:46:01.662Z,1.00
2022-10-16T02:48:28.054Z,1.30
2022-10-16T02:50:54.429Z,1.25
2022-10-16T02:53:20.843Z,1.13
2022-10-16T02:55:47.213Z,0.90
2022-10-16T02:58:13.558Z,1.27
2022-10-16T03:00:40.148Z,1.05
2022-10-16T03:03:06.598Z,1.13
2022-10-16T03:05:32.994Z,1.35
2022-10-16T03:08:01.554Z,1.50
2022-10-16T03:10:28.380Z,1.20
2022-10-16T03:12:54.729Z,1.40
2022-10-16T03:15:21.167Z,1.17
2022-10-16T03:17:47.568Z,1.10
2022-10-16T03:20:14.246Z,1.48
2022-10-16T03:22:40.633Z,1.30
2022-10-16T03:25:07.545Z,1.05
2022-10-16T03:27:33.913Z,1.30
2022-10-16T03:30:00.277Z,1.15
2022-10-16T03:32:26.762Z,1.15
2022-10-16T03:34:55.138Z,0.93
2022-10-16T03:37:21.532Z,0.70
2022-10-16T03:39:47.910Z,0.93
2022-10-16T03:42:14.302Z,0.90
2022-10-16T03:44:40.678Z,1.00
2022-10-16T03:47:07.058Z,0.90
2022-10-16T03:49:33.438Z,0.90
2022-10-16T03:51:59.814Z,1.33
2022-10-16T03:54:26.243Z,1.02
2022-10-16T03:56:52.594Z,1.02
2022-10-16T03:59:18.979Z,1.10
2022-10-16T04:01:45.405Z,1.10
2022-10-16T04:04:11.818Z,1.48
2022-10-16T04:06:38.309Z,0.70
2022-10-16T04:09:04.825Z,1.17
2022-10-16T04:11:31.208Z,1.00
2022-10-16T04:13:57.560Z,0.70
2022-10-16T04:16:23.951Z,1.02
2022-10-16T04:18:50.415Z,0.80
2022-10-16T04:21:16.839Z,1.30
2022-10-16T04:23:43.928Z,1.00
2022-10-16T04:26:11.381Z,0.80
2022-10-16T04:28:37.895Z,1.40
2022-10-16T04:31:05.580Z,0.90
2022-10-16T04:33:32.022Z,0.98
2022-10-16T04:35:59.821Z,1.05
2022-10-16T04:38:26.548Z,0.93
2022-10-16T04:40:53.320Z,1.10
2022-10-16T04:43:20.461Z,1.13
2022-10-16T04:45:47.032Z,1.50
2022-10-16T04:48:13.507Z,1.05
2022-10-16T04:50:39.927Z,1.17
2022-10-16T04:53:08.102Z,1.45
2022-10-16T04:55:34.576Z,1.13
2022-10-16T04:58:00.972Z,1.08
2022-10-16T05:00:27.729Z,1.17
2022-10-16T05:02:54.224Z,1.15
2022-10-16T05:05:20.799Z,1.20
2022-10-16T05:07:48.491Z,1.80
2022-10-16T05:10:14.932Z,0.95
2022-10-16T05:12:41.347Z,0.90
2022-10-16T05:15:08.310Z,1.20
2022-10-16T05:17:34.762Z,1.00
2022-10-16T05:20:01.208Z,1.30
2022-10-16T05:22:27.623Z,1.40
2022-10-16T05:24:54.014Z,1.33
2022-10-16T05:27:20.948Z,1.20
2022-10-16T05:29:48.768Z,1.60
2022-10-16T05:32:16.741Z,1.00
2022-10-16T05:34:43.519Z,1.20
2022-10-16T05:37:10.485Z,1.10
2022-10-16T05:39:37.818Z,0.90
2022-10-16T05:42:05.167Z,1.20
2022-10-16T05:44:31.668Z,1.23
2022-10-16T05:46:58.353Z,1.33
2022-10-16T05:49:24.823Z,1.13
2022-10-16T05:51:51.195Z,1.27
2022-10-16T05:54:17.971Z,1.10
2022-10-16T05:56:44.430Z,1.25
2022-10-16T05:59:10.810Z,0.85
2022-10-16T06:01:37.198Z,1.10
2022-10-16T06:04:03.946Z,1.20
2022-10-16T06:06:31.761Z,1.33
2022-10-16T06:08:58.800Z,1.10
2022-10-16T06:11:31.120Z,1.00
2022-10-16T06:13:59.841Z,1.33
2022-10-16T06:16:27.236Z,1.17
2022-10-16T06:18:55.237Z,1.30
2022-10-16T06:21:25.661Z,1.20
2022-10-16T06:23:53.411Z,1.15
2022-10-16T06:26:22.346Z,1.08
2022-10-16T06:28:49.823Z,1.27
2022-10-16T06:31:17.971Z,1.60
2022-10-16T06:33:46.517Z,2.40
2022-10-16T06:36:15.581Z,2.20
2022-10-16T06:38:42.714Z,2.72
2022-10-16T06:41:12.367Z,2.38
2022-10-16T06:43:38.762Z,1.70
2022-10-16T06:46:08.762Z,1.80
2022-10-16T06:48:35.506Z,1.70
2022-10-16T06:53:49.175Z,2.00
2022-10-16T06:58:54.723Z,1.65
2022-10-16T07:01:23.005Z,1.80
2022-10-16T07:03:49.745Z,1.92
2022-10-16T07:06:20.309Z,1.73
2022-10-16T07:08:48.250Z,1.50
2022-10-16T07:11:17.309Z,1.90
2022-10-16T07:13:48.153Z,1.80
2022-10-16T07:16:20.566Z,1.75
2022-10-16T07:18:49.334Z,1.45
2022-10-16T07:21:21.424Z,1.48
2022-10-16T07:23:52.131Z,1.80
2022-10-16T07:26:18.606Z,1.80
2022-10-16T07:28:45.400Z,1.40
2022-10-16T07:31:16.809Z,2.05
2022-10-16T07:33:45.670Z,1.63
2022-10-16T07:36:16.351Z,1.77
2022-10-16T07:38:43.724Z,1.75
2022-10-16T07:41:12.960Z,1.98
2022-10-16T07:43:39.821Z,1.90
2022-10-16T07:46:06.753Z,1.63
2022-10-16T07:48:35.323Z,2.00
2022-10-16T07:51:03.772Z,2.05
2022-10-16T07:53:30.439Z,1.70
2022-10-16T07:56:05.889Z,2.03
2022-10-16T07:58:33.390Z,1.58
2022-10-16T08:01:03.424Z,2.20
2022-10-16T08:03:29.823Z,1.83
2022-10-16T08:05:58.448Z,1.70
2022-10-16T08:08:25.222Z,1.67
2022-10-16T08:10:51.586Z,1.83
2022-10-16T08:13:18.011Z,1.90
2022-10-16T08:15:45.590Z,1.40
2022-10-16T08:18:13.857Z,1.65
2022-10-16T08:20:41.219Z,1.70
2022-10-16T08:23:07.894Z,1.80
2022-10-16T08:25:38.218Z,1.70
2022-10-16T08:28:10.162Z,1.90
2022-10-16T08:30:37.273Z,1.75
2022-10-16T08:33:04.192Z,2.00
2022-10-16T08:35:30.867Z,1.88
2022-10-16T08:37:57.305Z,1.50
2022-10-16T08:40:31.965Z,1.60
2022-10-16T08:43:13.148Z,1.70
2022-10-16T08:48:21.014Z,1.20
2022-10-16T08:50:50.411Z,1.58
2022-10-16T08:53:44.098Z,1.40
2022-10-16T08:56:10.483Z,1.45
2022-10-16T08:58:36.982Z,1.33
2022-10-16T09:01:11.801Z,2.08
2022-10-16T09:04:15.639Z,1.42
2022-10-16T09:07:10.502Z,1.38
2022-10-16T09:10:18.436Z,1.40
2022-10-16T09:12:54.977Z,1.13
2022-10-16T09:15:30.537Z,1.00
2022-10-16T09:18:11.067Z,1.10
2022-10-16T09:20:50.208Z,1.42
2022-10-16T09:23:26.594Z,0.82
2022-10-16T09:25:54.892Z,1.15
2022-10-16T09:28:21.687Z,0.93
2022-10-16T09:30:51.772Z,0.90
2022-10-16T09:33:21.596Z,0.65
2022-10-16T09:35:53.968Z,1.10
2022-10-16T09:38:31.750Z,0.93
2022-10-16T09:41:03.173Z,0.90
2022-10-16T09:43:39.766Z,0.95
2022-10-16T09:46:08.938Z,0.90
2022-10-16T09:48:40.168Z,1.00
2022-10-16T09:51:17.403Z,0.90
2022-10-16T09:53:48.127Z,0.80
2022-10-16T09:56:36.393Z,0.65
2022-10-16T09:59:28.909Z,0.70
2022-10-16T10:01:56.101Z,0.60
2022-10-16T10:04:24.839Z,0.60
2022-10-16T10:06:59.038Z,0.50
2022-10-16T10:09:33.802Z,0.63
2022-10-16T10:14:41.934Z,0.60
2022-10-16T10:17:20.494Z,0.60
2022-10-16T10:19:56.087Z,0.70
2022-10-16T10:22:32.739Z,0.70
2022-10-16T10:25:30.184Z,0.60
2022-10-16T10:28:19.585Z,0.50
2022-10-16T10:30:58.480Z,0.50
2022-10-16T10:33:37.562Z,0.60
2022-10-16T10:36:23.619Z,0.50
2022-10-16T10:38:59.072Z,0.50
2022-10-16T10:41:58.145Z,0.70
2022-10-16T10:44:24.476Z,0.60
2022-10-16T10:47:09.836Z,0.40
2022-10-16T10:49:39.409Z,0.60
2022-10-16T10:52:28.971Z,0.40
2022-10-16T10:55:09.990Z,0.50
2022-10-16T10:57:50.806Z,0.40
2022-10-16T11:00:37.545Z,0.38
2022-10-16T11:03:28.325Z,0.60
2022-10-16T11:06:05.389Z,0.30
2022-10-16T11:08:40.783Z,0.32
2022-10-16T11:11:15.673Z,0.70
2022-10-16T11:13:56.387Z,0.30
2022-10-16T11:16:29.543Z,0.40
2022-10-16T11:19:26.331Z,0.28
2022-10-16T11:22:20.624Z,0.50
2022-10-16T11:24:53.386Z,0.60
2022-10-16T11:27:29.530Z,0.45
2022-10-16T11:30:02.479Z,0.50
2022-10-16T11:32:34.913Z,0.40
2022-10-16T11:35:13.496Z,0.55
2022-10-16T11:37:45.518Z,0.50
2022-10-16T11:40:29.660Z,0.40
2022-10-16T11:43:07.592Z,0.45
2022-10-16T11:45:43.298Z,0.40
2022-10-16T11:48:15.446Z,0.30
2022-10-16T11:50:50.374Z,0.45
2022-10-16T11:53:45.254Z,0.25
2022-10-16T11:56:17.925Z,0.40
2022-10-16T11:59:25.580Z,0.68
2022-10-16T12:02:00.730Z,0.60
2022-10-16T12:05:08.634Z,0.63
2022-10-16T12:07:44.325Z,0.82
2022-10-16T12:10:23.598Z,0.55
2022-10-16T12:12:53.006Z,0.60
2022-10-16T12:15:54.550Z,0.45
2022-10-16T12:18:25.536Z,0.47
2022-10-16T12:21:17.332Z,0.30
2022-10-16T12:23:53.399Z,0.30
2022-10-16T12:26:28.610Z,0.30
2022-10-16T12:28:56.563Z,0.40
2022-10-16T12:31:24.276Z,0.30
2022-10-16T12:33:59.782Z,0.40
2022-10-16T12:36:32.956Z,0.40
2022-10-16T12:39:00.703Z,0.35
2022-10-16T12:41:32.590Z,0.35
2022-10-16T12:44:02.207Z,0.52
2022-10-16T12:46:31.314Z,0.88
2022-10-16T12:49:14.463Z,0.63
2022-10-16T12:51:42.450Z,0.40
2022-10-16T12:54:16.026Z,0.40
2022-10-16T12:57:07.859Z,0.47
2022-10-16T12:59:54.342Z,0.68
2022-10-16T13:02:57.780Z,0.50
2022-10-16T13:05:53.277Z,0.98
2022-10-16T13:08:46.771Z,0.50
2022-10-16T13:11:37.872Z,0.60
2022-10-16T13:14:26.299Z,0.47
2022-10-16T13:17:13.976Z,0.65
2022-10-16T13:19:56.400Z,0.90
2022-10-16T13:22:35.694Z,1.00
2022-10-16T13:25:09.012Z,0.88
2022-10-16T13:27:52.733Z,1.48
2022-10-16T13:30:29.892Z,1.55
2022-10-16T13:33:41.633Z,1.70
2022-10-16T13:36:18.937Z,1.83
2022-10-16T13:38:45.399Z,2.30
2022-10-16T13:41:19.184Z,2.05
2022-10-16T13:43:52.741Z,2.15
2022-10-16T13:46:24.264Z,2.05
2022-10-16T13:49:25.968Z,1.83
2022-10-16T13:52:00.414Z,2.05
2022-10-16T13:54:29.645Z,2.60
2022-10-16T13:57:03.525Z,2.20
2022-10-16T13:59:38.281Z,2.20
2022-10-16T14:02:37.651Z,2.25
2022-10-16T14:05:08.937Z,2.53
2022-10-16T14:07:35.855Z,3.00
2022-10-16T14:10:08.420Z,2.75
2022-10-16T14:12:35.839Z,3.15
2022-10-16T14:15:02.779Z,2.92
2022-10-16T14:17:34.376Z,2.70
2022-10-16T14:20:06.654Z,4.45
2022-10-16T14:22:42.465Z,3.05
2022-10-16T14:25:21.393Z,3.25
2022-10-16T14:28:20.519Z,2.42
2022-10-16T14:30:53.298Z,2.30
2022-10-16T14:33:34.566Z,2.97
2022-10-16T14:36:03.500Z,2.67
2022-10-16T14:38:30.881Z,2.45
2022-10-16T14:40:59.974Z,2.55
2022-10-16T14:43:36.609Z,2.90
2022-10-16T14:46:10.382Z,2.95
2022-10-16T14:48:37.059Z,3.05
2022-10-16T14:51:03.589Z,2.80
2022-10-16T14:53:30.010Z,2.47
2022-10-16T14:55:56.461Z,2.72
2022-10-16T14:58:24.177Z,2.78
2022-10-16T15:00:50.623Z,2.70
2022-10-16T15:03:17.393Z,2.35
2022-10-16T15:05:44.897Z,2.47
2022-10-16T15:08:13.241Z,2.20
2022-10-16T15:10:43.281Z,2.30
2022-10-16T15:13:14.746Z,2.75
2022-10-16T15:15:46.514Z,2.13
2022-10-16T15:18:15.664Z,2.72
2022-10-16T15:20:42.541Z,3.10
2022-10-16T15:23:18.823Z,2.38
2022-10-16T15:25:46.950Z,2.58
2022-10-16T15:28:14.849Z,2.13
2022-10-16T15:30:42.136Z,2.38
2022-10-16T15:33:17.809Z,2.38
2022-10-16T15:35:48.042Z,2.90
2022-10-16T15:38:15.069Z,2.30
2022-10-16T15:40:42.139Z,2.40
2022-10-16T15:43:08.602Z,2.50
2022-10-16T15:45:35.432Z,2.40
2022-10-16T15:48:01.989Z,2.42
2022-10-16T15:50:28.515Z,2.28
2022-10-16T15:52:54.866Z,2.60
2022-10-16T15:55:21.291Z,2.35
2022-10-16T15:57:47.698Z,2.55
2022-10-16T16:00:17.138Z,2.70
2022-10-16T16:02:44.876Z,2.45
2022-10-16T16:05:12.132Z,2.20
2022-10-16T16:07:41.130Z,2.90
2022-10-16T16:10:11.003Z,2.47
2022-10-16T16:12:38.476Z,2.38
2022-10-16T16:15:09.784Z,2.60
2022-10-16T16:17:37.310Z,3.30
2022-10-16T16:20:05.519Z,2.70
2022-10-16T16:22:32.179Z,2.88
2022-10-16T16:24:58.588Z,2.75
2022-10-16T16:27:26.246Z,2.60
2022-10-16T16:29:54.171Z,2.72
2022-10-16T16:32:20.635Z,2.70
2022-10-16T16:34:47.183Z,2.60
2022-10-16T16:37:13.870Z,3.00
2022-10-16T16:39:40.344Z,2.67
2022-10-16T16:42:08.336Z,3.00
2022-10-16T16:44:37.019Z,2.95
2022-10-16T16:47:04.683Z,3.15
2022-10-16T16:49:31.264Z,3.38
2022-10-16T16:51:57.697Z,3.13
2022-10-16T16:54:24.255Z,3.05
2022-10-16T16:56:50.689Z,3.10
2022-10-16T16:59:20.573Z,3.83
2022-10-16T17:01:48.036Z,4.03
2022-10-16T17:04:19.772Z,3.78
2022-10-16T17:06:53.873Z,3.90
2022-10-16T17:09:20.292Z,3.85
2022-10-16T17:11:47.607Z,3.97
2022-10-16T17:14:13.995Z,4.10
2022-10-16T17:16:44.541Z,3.75
2022-10-16T17:19:15.453Z,4.45
2022-10-16T17:21:42.688Z,4.97
2022-10-16T17:24:10.132Z,8.05
2022-10-16T17:26:38.342Z,8.68
2022-10-16T17:29:05.046Z,10.93
2022-10-16T17:31:36.340Z,11.75
2022-10-16T17:34:05.554Z,11.77
2022-10-16T17:36:34.592Z,10.13
2022-10-16T17:39:04.475Z,8.90
2022-10-16T17:41:31.713Z,8.10
2022-10-16T17:43:58.155Z,10.35
2022-10-16T17:46:25.427Z,14.00
2022-10-16T17:48:55.588Z,18.98
2022-10-16T17:51:25.441Z,13.32
2022-10-16T17:53:54.704Z,14.55
2022-10-16T17:56:22.147Z,13.45
2022-10-16T17:58:54.289Z,8.73
2022-10-16T18:01:24.143Z,8.50
2022-10-16T18:03:52.503Z,7.18
2022-10-16T18:06:22.698Z,6.55
2022-10-16T18:08:50.846Z,6.88
2022-10-16T18:11:17.373Z,6.53
2022-10-16T18:13:44.531Z,4.35
2022-10-16T18:16:12.847Z,5.90
2022-10-16T18:18:41.046Z,4.90
2022-10-16T18:21:09.455Z,5.30
2022-10-16T18:23:36.768Z,5.05
2022-10-16T18:26:05.348Z,5.30
2022-10-16T18:28:32.375Z,4.65
2022-10-16T18:31:06.923Z,5.10
2022-10-16T18:33:33.716Z,5.55
2022-10-16T18:36:05.474Z,4.90
2022-10-16T18:38:32.834Z,6.15
2022-10-16T18:41:01.827Z,5.47
2022-10-16T18:43:30.406Z,6.25
2022-10-16T18:45:58.586Z,5.43
2022-10-16T18:48:25.624Z,5.28
2022-10-16T18:50:52.970Z,6.13
2022-10-16T18:53:19.907Z,6.05
2022-10-16T18:55:53.241Z,7.20
2022-10-16T18:58:20.369Z,8.02
2022-10-16T19:00:47.068Z,8.27
2022-10-16T19:03:13.577Z,7.00
2022-10-16T19:05:40.160Z,6.85
2022-10-16T19:08:06.685Z,6.05
2022-10-16T19:10:36.953Z,6.30
2022-10-16T19:13:06.359Z,6.10
2022-10-16T19:15:42.810Z,7.10
2022-10-16T19:18:11.080Z,7.03
2022-10-16T19:20:37.551Z,6.55
2022-10-16T19:23:04.180Z,5.72
2022-10-16T19:25:30.766Z,5.03
2022-10-16T19:27:57.329Z,5.30
2022-10-16T19:30:25.265Z,5.20
2022-10-16T19:32:53.010Z,5.43
2022-10-16T19:35:19.717Z,5.00
2022-10-16T19:37:50.106Z,5.72
2022-10-16T19:40:16.691Z,6.13
2022-10-16T19:42:45.093Z,5.53
2022-10-16T19:45:12.085Z,4.70
2022-10-16T19:47:38.773Z,5.72
2022-10-16T19:50:06.545Z,6.07
2022-10-16T19:52:33.680Z,5.85
2022-10-16T19:55:00.135Z,6.50
2022-10-16T19:57:27.000Z,6.85
2022-10-16T19:59:54.421Z,6.55
2022-10-16T20:02:21.388Z,6.10
2022-10-16T20:04:47.897Z,5.63
2022-10-16T20:07:15.879Z,6.18
2022-10-16T20:09:42.472Z,6.93
2022-10-16T20:12:08.977Z,9.25
2022-10-16T20:14:35.662Z,9.13
2022-10-16T20:17:02.342Z,9.38
2022-10-16T20:19:28.970Z,9.23
2022-10-16T20:21:55.762Z,9.15
2022-10-16T20:24:22.363Z,9.55
2022-10-16T20:26:48.869Z,8.85
2022-10-16T20:29:15.665Z,9.35
2022-10-16T20:31:42.234Z,9.70
2022-10-16T20:34:11.504Z,9.98
2022-10-16T20:36:42.657Z,8.60
2022-10-16T20:41:36.337Z,7.50
2022-10-16T20:44:03.854Z,8.55
2022-10-16T20:46:30.493Z,11.95
2022-10-16T20:49:06.042Z,9.45
2022-10-16T20:51:38.241Z,8.13
2022-10-16T20:54:06.319Z,8.27
2022-10-16T20:56:35.208Z,8.02
2022-10-16T20:59:02.145Z,8.20
2022-10-16T21:01:29.841Z,8.05
2022-10-16T21:04:02.011Z,7.90
2022-10-16T21:06:29.527Z,8.05
2022-10-16T21:08:56.231Z,10.80
2022-10-16T21:11:27.156Z,7.28
2022-10-16T21:13:56.237Z,7.13
2022-10-16T21:16:23.511Z,7.30
2022-10-16T21:18:50.434Z,6.43
2022-10-16T21:21:26.138Z,7.25
2022-10-16T21:23:53.102Z,7.13
2022-10-16T21:26:25.839Z,6.63
2022-10-16T21:29:00.776Z,7.15
2022-10-16T21:31:27.744Z,6.15
2022-10-16T21:33:55.234Z,6.57
2022-10-16T21:36:26.633Z,5.93
2022-10-16T21:38:53.709Z,6.15
2022-10-16T21:41:26.634Z,6.15
2022-10-16T21:43:54.718Z,6.13
2022-10-16T21:46:25.139Z,5.53
2022-10-16T21:48:55.625Z,6.05
2022-10-16T21:51:27.533Z,5.80
2022-10-16T21:53:54.730Z,5.70
2022-10-16T21:56:21.822Z,5.30
2022-10-16T21:58:48.286Z,6.60
2022-10-16T22:01:19.945Z,5.75
2022-10-16T22:03:47.472Z,4.60
2022-10-16T22:06:16.856Z,6.55
2022-10-16T22:08:43.894Z,8.75
2022-10-16T22:11:23.209Z,8.40
2022-10-16T22:13:54.260Z,8.82
2022-10-16T22:16:25.427Z,7.68
2022-10-16T22:18:53.516Z,7.97
2022-10-16T22:21:20.188Z,6.97
2022-10-16T22:23:46.806Z,6.13
2022-10-16T22:26:13.211Z,6.53
2022-10-16T22:28:40.690Z,5.72
2022-10-16T22:31:10.051Z,5.18
2022-10-16T22:33:36.681Z,4.82
2022-10-16T22:36:05.193Z,5.57
2022-10-16T22:38:33.381Z,4.72
2022-10-16T22:41:05.130Z,5.18
2022-10-16T22:43:34.394Z,4.63
2022-10-16T22:46:05.814Z,5.10
2022-10-16T22:48:32.253Z,4.78
2022-10-16T22:50:58.665Z,4.80
2022-10-16T22:53:25.076Z,6.43
2022-10-16T22:55:51.736Z,7.05
2022-10-16T22:58:18.441Z,7.00
2022-10-16T23:00:45.348Z,8.48
2022-10-16T23:03:12.146Z,8.38
2022-10-16T23:05:40.109Z,9.93
2022-10-16T23:08:07.127Z,9.45
2022-10-16T23:10:34.723Z,7.93
2022-10-16T23:13:01.092Z,9.57
2022-10-16T23:15:27.473Z,8.73
2022-10-16T23:17:53.853Z,8.38
2022-10-16T23:20:20.271Z,8.10
2022-10-16T23:22:46.754Z,8.57
2022-10-16T23:25:13.163Z,9.80
2022-10-16T23:27:39.563Z,9.77
2022-10-16T23:30:06.866Z,7.38
2022-10-16T23:32:34.047Z,7.40
2022-10-16T23:35:00.589Z,7.00
2022-10-16T23:37:27.110Z,6.43
2022-10-16T23:39:54.007Z,6.78
2022-10-16T23:42:20.618Z,7.90
2022-10-16T23:44:47.225Z,8.05
2022-10-16T23:47:13.602Z,7.60
2022-10-16T23:49:39.974Z,6.57
2022-10-16T23:52:07.114Z,9.32
2022-10-16T23:54:33.547Z,9.38
2022-10-16T23:57:00.137Z,10.18
2022-10-16T23:59:26.538Z,10.00
